sensor_id;sensor_type;location;lat;lon;timestamp;P1;durP1;ratioP1;P2;durP2;ratioP2
54683;SDS011;40582;53.100;6.686;2022-10-17T00:01:54;12.25;;;4.72;;
54683;SDS011;40582;53.100;6.686;2022-10-17T00:04:20;15.18;;;4.75;;
54683;SDS011;40582;53.100;6.686;2022-10-17T00:06:45;11.15;;;3.92;;
54683;SDS011;40582;53.100;6.686;2022-10-17T00:09:11;16.27;;;4.55;;
54683;SDS011;40582;53.100;6.686;2022-10-17T00:11:36;13.18;;;4.28;;
54683;SDS011;40582;53.100;6.686;2022-10-17T00:14:03;12.38;;;4.03;;
54683;SDS011;40582;53.100;6.686;2022-10-17T00:16:30;15.18;;;3.70;;
54683;SDS011;40582;53.100;6.686;2022-10-17T00:18:58;21.67;;;4.53;;
54683;SDS011;40582;53.100;6.686;2022-10-17T00:21:24;14.60;;;4.00;;
54683;SDS011;40582;53.100;6.686;2022-10-17T00:23:51;11.02;;;3.90;;
54683;SDS011;40582;53.100;6.686;2022-10-17T00:26:17;16.67;;;4.15;;
54683;SDS011;40582;53.100;6.686;2022-10-17T00:28:47;18.30;;;4.32;;
54683;SDS011;40582;53.100;6.686;2022-10-17T00:31:13;11.95;;;3.40;;
54683;SDS011;40582;53.100;6.686;2022-10-17T00:33:41;13.43;;;3.13;;
54683;SDS011;40582;53.100;6.686;2022-10-17T00:38:37;9.85;;;3.35;;
54683;SDS011;40582;53.100;6.686;2022-10-17T00:41:04;15.43;;;3.88;;
54683;SDS011;40582;53.100;6.686;2022-10-17T00:46:20;14.70;;;3.55;;
54683;SDS011;40582;53.100;6.686;2022-10-17T00:48:51;16.58;;;3.95;;
54683;SDS011;40582;53.100;6.686;2022-10-17T00:51:19;21.77;;;4.20;;
54683;SDS011;40582;53.100;6.686;2022-10-17T00:53:53;18.88;;;4.32;;
54683;SDS011;40582;53.100;6.686;2022-10-17T00:56:19;15.85;;;4.07;;
54683;SDS011;40582;53.100;6.686;2022-10-17T00:58:46;18.60;;;4.28;;
54683;SDS011;40582;53.100;6.686;2022-10-17T01:01:12;10.77;;;3.40;;
54683;SDS011;40582;53.100;6.686;2022-10-17T01:03:37;20.05;;;4.05;;
54683;SDS011;40582;53.100;6.686;2022-10-17T01:06:03;13.68;;;4.00;;
54683;SDS011;40582;53.100;6.686;2022-10-17T01:08:29;16.13;;;4.25;;
54683;SDS011;40582;53.100;6.686;2022-10-17T01:17:12;18.70;;;4.53;;
54683;SDS011;40582;53.100;6.686;2022-10-17T01:22:48;21.50;;;5.32;;
54683;SDS011;40582;53.100;6.686;2022-10-17T01:31:08;12.38;;;5.03;;
54683;SDS011;40582;53.100;6.686;2022-10-17T01:33:43;24.10;;;5.70;;
54683;SDS011;40582;53.100;6.686;2022-10-17T01:36:18;27.00;;;5.40;;
54683;SDS011;40582;53.100;6.686;2022-10-17T01:39:07;24.73;;;6.88;;
54683;SDS011;40582;53.100;6.686;2022-10-17T01:42:01;17.58;;;5.28;;
54683;SDS011;40582;53.100;6.686;2022-10-17T01:44:57;17.15;;;5.60;;
54683;SDS011;40582;53.100;6.686;2022-10-17T01:47:28;21.45;;;5.78;;
54683;SDS011;40582;53.100;6.686;2022-10-17T01:50:06;22.73;;;5.10;;
54683;SDS011;40582;53.100;6.686;2022-10-17T01:52:45;13.48;;;5.38;;
54683;SDS011;40582;53.100;6.686;2022-10-17T01:55:28;17.92;;;5.88;;
54683;SDS011;40582;53.100;6.686;2022-10-17T01:57:58;15.68;;;5.30;;
54683;SDS011;40582;53.100;6.686;2022-10-17T02:00:29;20.25;;;6.03;;
54683;SDS011;40582;53.100;6.686;2022-10-17T02:03:00;16.50;;;5.85;;
54683;SDS011;40582;53.100;6.686;2022-10-17T02:05:34;15.52;;;5.63;;
54683;SDS011;40582;53.100;6.686;2022-10-17T02:08:02;16.30;;;5.80;;
54683;SDS011;40582;53.100;6.686;2022-10-17T02:10:31;17.95;;;5.32;;
54683;SDS011;40582;53.100;6.686;2022-10-17T02:21:32;25.85;;;7.93;;
54683;SDS011;40582;53.100;6.686;2022-10-17T02:27:05;17.40;;;6.38;;
54683;SDS011;40582;53.100;6.686;2022-10-17T02:29:33;15.45;;;6.97;;
54683;SDS011;40582;53.100;6.686;2022-10-17T02:32:18;25.13;;;6.97;;
54683;SDS011;40582;53.100;6.686;2022-10-17T02:34:50;15.23;;;6.15;;
54683;SDS011;40582;53.100;6.686;2022-10-17T02:37:22;14.20;;;6.53;;
54683;SDS011;40582;53.100;6.686;2022-10-17T02:39:51;15.40;;;6.53;;
54683;SDS011;40582;53.100;6.686;2022-10-17T02:42:19;13.55;;;6.00;;
54683;SDS011;40582;53.100;6.686;2022-10-17T02:44:47;12.50;;;6.97;;
54683;SDS011;40582;53.100;6.686;2022-10-17T02:49:54;15.85;;;6.93;;
54683;SDS011;40582;53.100;6.686;2022-10-17T02:55:09;13.45;;;6.10;;
54683;SDS011;40582;53.100;6.686;2022-10-17T02:57:45;20.23;;;7.85;;
54683;SDS011;40582;53.100;6.686;2022-10-17T03:00:14;13.48;;;6.50;;
54683;SDS011;40582;53.100;6.686;2022-10-17T03:02:45;16.00;;;6.95;;
54683;SDS011;40582;53.100;6.686;2022-10-17T03:05:14;11.55;;;7.28;;
54683;SDS011;40582;53.100;6.686;2022-10-17T03:07:45;19.65;;;6.88;;
54683;SDS011;40582;53.100;6.686;2022-10-17T03:10:11;14.65;;;7.32;;
54683;SDS011;40582;53.100;6.686;2022-10-17T03:12:37;18.85;;;7.82;;
54683;SDS011;40582;53.100;6.686;2022-10-17T03:15:03;17.88;;;7.45;;
54683;SDS011;40582;53.100;6.686;2022-10-17T03:17:29;13.70;;;7.65;;
54683;SDS011;40582;53.100;6.686;2022-10-17T03:19:55;10.73;;;7.00;;
54683;SDS011;40582;53.100;6.686;2022-10-17T03:22:21;16.95;;;7.90;;
54683;SDS011;40582;53.100;6.686;2022-10-17T03:24:47;17.65;;;8.15;;
54683;SDS011;40582;53.100;6.686;2022-10-17T03:27:13;13.27;;;8.07;;
54683;SDS011;40582;53.100;6.686;2022-10-17T03:29:38;12.52;;;8.25;;
54683;SDS011;40582;53.100;6.686;2022-10-17T03:32:04;14.35;;;9.20;;
54683;SDS011;40582;53.100;6.686;2022-10-17T03:34:30;14.38;;;7.25;;
54683;SDS011;40582;53.100;6.686;2022-10-17T03:36:55;14.30;;;8.50;;
54683;SDS011;40582;53.100;6.686;2022-10-17T03:39:21;13.68;;;8.10;;
54683;SDS011;40582;53.100;6.686;2022-10-17T03:41:47;14.82;;;9.35;;
54683;SDS011;40582;53.100;6.686;2022-10-17T03:44:12;13.95;;;8.90;;
54683;SDS011;40582;53.100;6.686;2022-10-17T03:46:38;14.60;;;9.25;;
54683;SDS011;40582;53.100;6.686;2022-10-17T03:49:03;13.70;;;9.38;;
54683;SDS011;40582;53.100;6.686;2022-10-17T03:51:30;20.60;;;9.35;;
54683;SDS011;40582;53.100;6.686;2022-10-17T03:53:58;13.73;;;9.63;;
54683;SDS011;40582;53.100;6.686;2022-10-17T03:56:24;18.92;;;10.85;;
54683;SDS011;40582;53.100;6.686;2022-10-17T03:58:49;13.90;;;10.35;;
54683;SDS011;40582;53.100;6.686;2022-10-17T04:01:16;17.52;;;11.57;;
54683;SDS011;40582;53.100;6.686;2022-10-17T04:03:42;19.80;;;11.25;;
54683;SDS011;40582;53.100;6.686;2022-10-17T04:06:12;15.23;;;12.18;;
54683;SDS011;40582;53.100;6.686;2022-10-17T04:08:38;18.70;;;11.60;;
54683;SDS011;40582;53.100;6.686;2022-10-17T04:11:06;22.08;;;12.02;;
54683;SDS011;40582;53.100;6.686;2022-10-17T04:13:35;18.75;;;13.40;;
54683;SDS011;40582;53.100;6.686;2022-10-17T04:16:03;22.35;;;13.02;;
54683;SDS011;40582;53.100;6.686;2022-10-17T04:18:31;21.40;;;12.55;;
54683;SDS011;40582;53.100;6.686;2022-10-17T04:20:57;19.92;;;13.40;;
54683;SDS011;40582;53.100;6.686;2022-10-17T04:23:26;15.35;;;12.18;;
54683;SDS011;40582;53.100;6.686;2022-10-17T04:25:55;15.95;;;12.40;;
54683;SDS011;40582;53.100;6.686;2022-10-17T04:28:22;23.50;;;14.52;;
54683;SDS011;40582;53.100;6.686;2022-10-17T04:30:58;16.75;;;13.15;;
54683;SDS011;40582;53.100;6.686;2022-10-17T04:33:25;27.27;;;15.05;;
54683;SDS011;40582;53.100;6.686;2022-10-17T04:38:24;23.83;;;15.98;;
54683;SDS011;40582;53.100;6.686;2022-10-17T04:40:51;21.92;;;15.45;;
54683;SDS011;40582;53.100;6.686;2022-10-17T04:43:17;23.67;;;16.63;;
54683;SDS011;40582;53.100;6.686;2022-10-17T04:45:43;26.95;;;16.38;;
54683;SDS011;40582;53.100;6.686;2022-10-17T04:48:08;21.33;;;15.50;;
54683;SDS011;40582;53.100;6.686;2022-10-17T04:50:34;24.70;;;15.63;;
54683;SDS011;40582;53.100;6.686;2022-10-17T04:53:00;19.60;;;14.93;;
54683;SDS011;40582;53.100;6.686;2022-10-17T04:55:25;24.70;;;16.20;;
54683;SDS011;40582;53.100;6.686;2022-10-17T04:57:51;23.38;;;17.35;;
54683;SDS011;40582;53.100;6.686;2022-10-17T05:00:17;24.10;;;17.20;;
54683;SDS011;40582;53.100;6.686;2022-10-17T05:02:42;28.17;;;18.00;;
54683;SDS011;40582;53.100;6.686;2022-10-17T05:05:08;23.35;;;18.45;;
54683;SDS011;40582;53.100;6.686;2022-10-17T05:07:34;20.38;;;16.48;;
54683;SDS011;40582;53.100;6.686;2022-10-17T05:09:59;25.33;;;18.85;;
54683;SDS011;40582;53.100;6.686;2022-10-17T05:12:25;25.08;;;18.15;;
54683;SDS011;40582;53.100;6.686;2022-10-17T05:14:51;25.13;;;18.00;;
54683;SDS011;40582;53.100;6.686;2022-10-17T05:17:16;25.65;;;18.88;;
54683;SDS011;40582;53.100;6.686;2022-10-17T05:19:42;29.88;;;19.67;;
54683;SDS011;40582;53.100;6.686;2022-10-17T05:22:08;29.83;;;20.60;;
54683;SDS011;40582;53.100;6.686;2022-10-17T05:24:34;23.00;;;17.92;;
54683;SDS011;40582;53.100;6.686;2022-10-17T05:26:59;36.17;;;21.67;;
54683;SDS011;40582;53.100;6.686;2022-10-17T05:29:25;28.00;;;20.95;;
54683;SDS011;40582;53.100;6.686;2022-10-17T05:31:50;38.45;;;21.02;;
54683;SDS011;40582;53.100;6.686;2022-10-17T05:34:16;34.53;;;22.42;;
54683;SDS011;40582;53.100;6.686;2022-10-17T05:36:42;37.70;;;21.92;;
54683;SDS011;40582;53.100;6.686;2022-10-17T05:39:07;28.35;;;21.55;;
54683;SDS011;40582;53.100;6.686;2022-10-17T05:41:33;35.25;;;22.80;;
54683;SDS011;40582;53.100;6.686;2022-10-17T05:43:59;34.47;;;22.25;;
54683;SDS011;40582;53.100;6.686;2022-10-17T05:46:25;32.08;;;22.65;;
54683;SDS011;40582;53.100;6.686;2022-10-17T05:48:51;32.88;;;22.90;;
54683;SDS011;40582;53.100;6.686;2022-10-17T05:51:17;33.63;;;23.45;;
54683;SDS011;40582;53.100;6.686;2022-10-17T05:53:42;33.08;;;21.98;;
54683;SDS011;40582;53.100;6.686;2022-10-17T05:56:09;36.22;;;24.42;;
54683;SDS011;40582;53.100;6.686;2022-10-17T05:58:40;37.00;;;25.85;;
54683;SDS011;40582;53.100;6.686;2022-10-17T06:01:08;41.78;;;23.73;;
54683;SDS011;40582;53.100;6.686;2022-10-17T06:03:36;40.70;;;25.30;;
54683;SDS011;40582;53.100;6.686;2022-10-17T06:06:02;35.10;;;23.95;;
54683;SDS011;40582;53.100;6.686;2022-10-17T06:08:30;42.05;;;26.08;;
54683;SDS011;40582;53.100;6.686;2022-10-17T06:10:56;37.95;;;25.35;;
54683;SDS011;40582;53.100;6.686;2022-10-17T06:13:21;40.58;;;25.83;;
54683;SDS011;40582;53.100;6.686;2022-10-17T06:15:47;41.05;;;24.17;;
54683;SDS011;40582;53.100;6.686;2022-10-17T06:18:12;40.30;;;25.85;;
54683;SDS011;40582;53.100;6.686;2022-10-17T06:20:38;41.30;;;25.08;;
54683;SDS011;40582;53.100;6.686;2022-10-17T06:23:04;36.05;;;23.73;;
54683;SDS011;40582;53.100;6.686;2022-10-17T06:25:30;35.53;;;25.23;;
54683;SDS011;40582;53.100;6.686;2022-10-17T06:27:56;36.55;;;23.98;;
54683;SDS011;40582;53.100;6.686;2022-10-17T06:30:22;42.85;;;24.65;;
54683;SDS011;40582;53.100;6.686;2022-10-17T06:32:48;42.15;;;27.00;;
54683;SDS011;40582;53.100;6.686;2022-10-17T06:35:14;41.97;;;26.15;;
54683;SDS011;40582;53.100;6.686;2022-10-17T06:37:39;42.85;;;24.90;;
54683;SDS011;40582;53.100;6.686;2022-10-17T06:40:05;44.17;;;24.58;;
54683;SDS011;40582;53.100;6.686;2022-10-17T06:42:33;41.63;;;23.65;;
54683;SDS011;40582;53.100;6.686;2022-10-17T06:44:58;42.28;;;25.02;;
54683;SDS011;40582;53.100;6.686;2022-10-17T06:47:24;36.65;;;24.98;;
54683;SDS011;40582;53.100;6.686;2022-10-17T06:49:50;38.78;;;24.77;;
54683;SDS011;40582;53.100;6.686;2022-10-17T06:52:15;39.38;;;24.42;;
54683;SDS011;40582;53.100;6.686;2022-10-17T06:54:42;40.05;;;24.00;;
54683;SDS011;40582;53.100;6.686;2022-10-17T06:57:08;39.22;;;24.05;;
54683;SDS011;40582;53.100;6.686;2022-10-17T06:59:34;39.40;;;23.33;;
54683;SDS011;40582;53.100;6.686;2022-10-17T07:02:00;36.83;;;22.73;;
54683;SDS011;40582;53.100;6.686;2022-10-17T07:04:26;32.78;;;22.30;;
54683;SDS011;40582;53.100;6.686;2022-10-17T07:06:52;37.47;;;23.05;;
54683;SDS011;40582;53.100;6.686;2022-10-17T07:09:18;31.45;;;21.52;;
54683;SDS011;40582;53.100;6.686;2022-10-17T07:11:44;37.58;;;22.27;;
54683;SDS011;40582;53.100;6.686;2022-10-17T07:14:10;35.75;;;20.85;;
54683;SDS011;40582;53.100;6.686;2022-10-17T07:16:35;31.58;;;21.15;;
54683;SDS011;40582;53.100;6.686;2022-10-17T07:19:01;31.67;;;19.60;;
54683;SDS011;40582;53.100;6.686;2022-10-17T07:21:27;27.90;;;19.00;;
54683;SDS011;40582;53.100;6.686;2022-10-17T07:23:53;27.42;;;18.52;;
54683;SDS011;40582;53.100;6.686;2022-10-17T07:26:19;28.30;;;18.52;;
54683;SDS011;40582;53.100;6.686;2022-10-17T07:28:45;33.85;;;17.67;;
54683;SDS011;40582;53.100;6.686;2022-10-17T07:31:16;31.13;;;17.45;;
54683;SDS011;40582;53.100;6.686;2022-10-17T07:33:43;27.70;;;17.42;;
54683;SDS011;40582;53.100;6.686;2022-10-17T07:36:09;30.58;;;17.33;;
54683;SDS011;40582;53.100;6.686;2022-10-17T07:38:36;34.17;;;16.52;;
54683;SDS011;40582;53.100;6.686;2022-10-17T07:41:02;24.23;;;16.00;;
54683;SDS011;40582;53.100;6.686;2022-10-17T07:43:30;27.17;;;14.90;;
54683;SDS011;40582;53.100;6.686;2022-10-17T07:45:56;23.55;;;15.05;;
54683;SDS011;40582;53.100;6.686;2022-10-17T07:48:22;19.90;;;14.88;;
54683;SDS011;40582;53.100;6.686;2022-10-17T07:50:48;22.88;;;14.45;;
54683;SDS011;40582;53.100;6.686;2022-10-17T07:53:15;20.58;;;13.52;;
54683;SDS011;40582;53.100;6.686;2022-10-17T07:55:41;22.90;;;13.35;;
54683;SDS011;40582;53.100;6.686;2022-10-17T07:58:08;21.95;;;13.02;;
54683;SDS011;40582;53.100;6.686;2022-10-17T08:00:34;17.33;;;12.73;;
54683;SDS011;40582;53.100;6.686;2022-10-17T08:03:03;23.42;;;12.82;;
54683;SDS011;40582;53.100;6.686;2022-10-17T08:05:30;19.00;;;12.95;;
54683;SDS011;40582;53.100;6.686;2022-10-17T08:07:56;20.05;;;11.95;;
54683;SDS011;40582;53.100;6.686;2022-10-17T08:10:22;21.05;;;12.38;;
54683;SDS011;40582;53.100;6.686;2022-10-17T08:12:53;25.13;;;12.27;;
54683;SDS011;40582;53.100;6.686;2022-10-17T08:15:20;19.23;;;12.75;;
54683;SDS011;40582;53.100;6.686;2022-10-17T08:17:46;20.73;;;11.70;;
54683;SDS011;40582;53.100;6.686;2022-10-17T08:20:12;13.65;;;11.07;;
54683;SDS011;40582;53.100;6.686;2022-10-17T08:22:38;20.35;;;12.05;;
54683;SDS011;40582;53.100;6.686;2022-10-17T08:25:03;49.40;;;12.70;;
54683;SDS011;40582;53.100;6.686;2022-10-17T08:27:31;19.73;;;11.20;;
54683;SDS011;40582;53.100;6.686;2022-10-17T08:29:57;13.90;;;10.95;;
54683;SDS011;40582;53.100;6.686;2022-10-17T08:32:24;21.80;;;12.10;;
54683;SDS011;40582;53.100;6.686;2022-10-17T08:34:52;17.98;;;10.68;;
54683;SDS011;40582;53.100;6.686;2022-10-17T08:37:17;16.42;;;10.75;;
54683;SDS011;40582;53.100;6.686;2022-10-17T08:39:44;13.68;;;10.23;;
54683;SDS011;40582;53.100;6.686;2022-10-17T08:47:34;15.15;;;11.48;;
54683;SDS011;40582;53.100;6.686;2022-10-17T08:50:04;16.75;;;10.30;;
54683;SDS011;40582;53.100;6.686;2022-10-17T08:52:37;18.77;;;10.23;;
54683;SDS011;40582;53.100;6.686;2022-10-17T08:55:14;18.50;;;10.90;;
54683;SDS011;40582;53.100;6.686;2022-10-17T08:57:42;12.35;;;9.85;;
54683;SDS011;40582;53.100;6.686;2022-10-17T09:00:14;23.98;;;11.27;;
54683;SDS011;40582;53.100;6.686;2022-10-17T09:02:49;19.67;;;10.70;;
54683;SDS011;40582;53.100;6.686;2022-10-17T09:10:46;16.88;;;10.50;;
54683;SDS011;40582;53.100;6.686;2022-10-17T09:22:20;13.75;;;10.20;;
54683;SDS011;40582;53.100;6.686;2022-10-17T09:24:56;19.02;;;10.00;;
54683;SDS011;40582;53.100;6.686;2022-10-17T09:27:46;15.77;;;9.45;;
54683;SDS011;40582;53.100;6.686;2022-10-17T09:35:46;17.27;;;9.57;;
54683;SDS011;40582;53.100;6.686;2022-10-17T09:38:17;21.08;;;9.48;;
54683;SDS011;40582;53.100;6.686;2022-10-17T09:40:45;22.92;;;9.80;;
54683;SDS011;40582;53.100;6.686;2022-10-17T09:43:20;18.23;;;9.68;;
54683;SDS011;40582;53.100;6.686;2022-10-17T09:46:11;14.95;;;9.98;;
54683;SDS011;40582;53.100;6.686;2022-10-17T09:49:16;21.25;;;10.95;;
54683;SDS011;40582;53.100;6.686;2022-10-17T09:51:42;15.75;;;10.10;;
54683;SDS011;40582;53.100;6.686;2022-10-17T09:54:29;18.23;;;10.32;;
54683;SDS011;40582;53.100;6.686;2022-10-17T09:57:09;14.95;;;10.15;;
54683;SDS011;40582;53.100;6.686;2022-10-17T09:59:38;15.70;;;10.68;;
54683;SDS011;40582;53.100;6.686;2022-10-17T10:02:17;14.18;;;9.85;;
54683;SDS011;40582;53.100;6.686;2022-10-17T10:04:51;20.90;;;10.65;;
54683;SDS011;40582;53.100;6.686;2022-10-17T10:07:21;22.38;;;11.88;;
54683;SDS011;40582;53.100;6.686;2022-10-17T10:09:48;29.10;;;13.07;;
54683;SDS011;40582;53.100;6.686;2022-10-17T10:12:19;24.70;;;13.13;;
54683;SDS011;40582;53.100;6.686;2022-10-17T10:14:50;21.77;;;12.80;;
54683;SDS011;40582;53.100;6.686;2022-10-17T10:17:27;26.45;;;13.38;;
54683;SDS011;40582;53.100;6.686;2022-10-17T10:20:02;23.23;;;13.65;;
54683;SDS011;40582;53.100;6.686;2022-10-17T10:23:03;27.25;;;13.52;;
54683;SDS011;40582;53.100;6.686;2022-10-17T10:25:30;26.50;;;16.35;;
54683;SDS011;40582;53.100;6.686;2022-10-17T10:27:56;28.73;;;17.27;;
54683;SDS011;40582;53.100;6.686;2022-10-17T10:30:27;29.38;;;17.27;;
54683;SDS011;40582;53.100;6.686;2022-10-17T10:32:54;24.02;;;15.77;;
54683;SDS011;40582;53.100;6.686;2022-10-17T10:35:23;24.77;;;15.70;;
54683;SDS011;40582;53.100;6.686;2022-10-17T10:38:00;26.25;;;15.88;;
54683;SDS011;40582;53.100;6.686;2022-10-17T10:40:51;27.85;;;15.38;;
54683;SDS011;40582;53.100;6.686;2022-10-17T10:43:36;29.02;;;17.75;;
54683;SDS011;40582;53.100;6.686;2022-10-17T10:46:15;24.75;;;17.52;;
54683;SDS011;40582;53.100;6.686;2022-10-17T10:48:48;36.00;;;19.13;;
54683;SDS011;40582;53.100;6.686;2022-10-17T10:51:18;26.45;;;15.05;;
54683;SDS011;40582;53.100;6.686;2022-10-17T10:56:42;28.00;;;16.30;;
54683;SDS011;40582;53.100;6.686;2022-10-17T10:59:13;42.85;;;19.77;;
54683;SDS011;40582;53.100;6.686;2022-10-17T11:04:29;30.05;;;18.15;;
54683;SDS011;40582;53.100;6.686;2022-10-17T11:07:08;35.17;;;19.90;;
54683;SDS011;40582;53.100;6.686;2022-10-17T11:12:32;29.85;;;20.23;;
54683;SDS011;40582;53.100;6.686;2022-10-17T11:23:17;24.95;;;16.90;;
54683;SDS011;40582;53.100;6.686;2022-10-17T11:25:49;40.17;;;19.88;;
54683;SDS011;40582;53.100;6.686;2022-10-17T11:28:18;38.85;;;18.65;;
54683;SDS011;40582;53.100;6.686;2022-10-17T11:30:47;26.13;;;17.05;;
54683;SDS011;40582;53.100;6.686;2022-10-17T11:35:54;27.63;;;17.52;;
54683;SDS011;40582;53.100;6.686;2022-10-17T11:41:16;32.45;;;18.70;;
54683;SDS011;40582;53.100;6.686;2022-10-17T11:43:50;28.52;;;17.27;;
54683;SDS011;40582;53.100;6.686;2022-10-17T11:46:27;26.80;;;18.23;;
54683;SDS011;40582;53.100;6.686;2022-10-17T11:48:59;29.88;;;17.33;;
54683;SDS011;40582;53.100;6.686;2022-10-17T11:51:36;28.63;;;16.08;;
54683;SDS011;40582;53.100;6.686;2022-10-17T11:54:17;26.55;;;17.30;;
54683;SDS011;40582;53.100;6.686;2022-10-17T11:56:52;22.38;;;17.15;;
54683;SDS011;40582;53.100;6.686;2022-10-17T11:59:47;23.00;;;16.80;;
54683;SDS011;40582;53.100;6.686;2022-10-17T12:02:25;29.00;;;18.45;;
54683;SDS011;40582;53.100;6.686;2022-10-17T12:10:30;19.75;;;15.88;;
54683;SDS011;40582;53.100;6.686;2022-10-17T12:13:45;20.15;;;13.07;;
54683;SDS011;40582;53.100;6.686;2022-10-17T12:16:35;19.58;;;12.40;;
54683;SDS011;40582;53.100;6.686;2022-10-17T12:18:47;18.33;;;12.93;;
54683;SDS011;40582;53.100;6.686;2022-10-17T12:21:16;12.93;;;10.32;;
54683;SDS011;40582;53.100;6.686;2022-10-17T12:23:50;18.38;;;10.18;;
54683;SDS011;40582;53.100;6.686;2022-10-17T12:26:26;17.58;;;10.52;;
54683;SDS011;40582;53.100;6.686;2022-10-17T12:28:55;19.88;;;10.55;;
54683;SDS011;40582;53.100;6.686;2022-10-17T12:31:22;11.32;;;8.95;;
54683;SDS011;40582;53.100;6.686;2022-10-17T12:33:53;17.35;;;9.77;;
54683;SDS011;40582;53.100;6.686;2022-10-17T12:38:47;16.67;;;9.82;;
54683;SDS011;40582;53.100;6.686;2022-10-17T12:41:14;13.32;;;9.25;;
54683;SDS011;40582;53.100;6.686;2022-10-17T12:43:52;17.60;;;9.93;;
54683;SDS011;40582;53.100;6.686;2022-10-17T12:46:40;15.60;;;9.68;;
54683;SDS011;40582;53.100;6.686;2022-10-17T12:52:05;14.95;;;9.15;;
54683;SDS011;40582;53.100;6.686;2022-10-17T12:54:46;16.52;;;9.38;;
54683;SDS011;40582;53.100;6.686;2022-10-17T12:57:20;15.15;;;8.52;;
54683;SDS011;40582;53.100;6.686;2022-10-17T13:00:50;13.18;;;8.55;;
54683;SDS011;40582;53.100;6.686;2022-10-17T13:03:04;12.43;;;8.30;;
54683;SDS011;40582;53.100;6.686;2022-10-17T13:05:32;15.90;;;9.60;;
54683;SDS011;40582;53.100;6.686;2022-10-17T13:08:01;13.32;;;9.07;;
54683;SDS011;40582;53.100;6.686;2022-10-17T13:10:31;16.48;;;9.60;;
54683;SDS011;40582;53.100;6.686;2022-10-17T13:13:03;17.73;;;8.77;;
54683;SDS011;40582;53.100;6.686;2022-10-17T13:15:39;13.07;;;7.90;;
54683;SDS011;40582;53.100;6.686;2022-10-17T13:18:26;10.52;;;8.02;;
54683;SDS011;40582;53.100;6.686;2022-10-17T13:20:53;9.50;;;6.85;;
54683;SDS011;40582;53.100;6.686;2022-10-17T13:23:36;10.95;;;6.28;;
54683;SDS011;40582;53.100;6.686;2022-10-17T13:26:13;9.02;;;5.47;;
54683;SDS011;40582;53.100;6.686;2022-10-17T13:28:43;13.35;;;5.85;;
54683;SDS011;40582;53.100;6.686;2022-10-17T13:31:28;12.57;;;5.60;;
54683;SDS011;40582;53.100;6.686;2022-10-17T13:33:56;10.25;;;4.90;;
54683;SDS011;40582;53.100;6.686;2022-10-17T13:36:24;9.80;;;5.05;;
54683;SDS011;40582;53.100;6.686;2022-10-17T13:38:50;10.27;;;5.10;;
54683;SDS011;40582;53.100;6.686;2022-10-17T13:41:16;7.82;;;4.50;;
54683;SDS011;40582;53.100;6.686;2022-10-17T13:43:46;13.38;;;5.07;;
54683;SDS011;40582;53.100;6.686;2022-10-17T13:46:27;8.00;;;5.00;;
54683;SDS011;40582;53.100;6.686;2022-10-17T13:48:58;10.45;;;6.13;;
54683;SDS011;40582;53.100;6.686;2022-10-17T13:51:33;12.80;;;4.85;;
54683;SDS011;40582;53.100;6.686;2022-10-17T13:53:59;8.80;;;5.10;;
54683;SDS011;40582;53.100;6.686;2022-10-17T13:56:25;8.43;;;4.95;;
54683;SDS011;40582;53.100;6.686;2022-10-17T13:58:52;11.45;;;4.35;;
54683;SDS011;40582;53.100;6.686;2022-10-17T14:01:21;5.78;;;3.90;;
54683;SDS011;40582;53.100;6.686;2022-10-17T14:03:49;12.00;;;4.10;;
54683;SDS011;40582;53.100;6.686;2022-10-17T14:06:21;12.90;;;4.10;;
54683;SDS011;40582;53.100;6.686;2022-10-17T14:08:59;5.20;;;3.53;;
54683;SDS011;40582;53.100;6.686;2022-10-17T14:14:07;8.90;;;3.40;;
54683;SDS011;40582;53.100;6.686;2022-10-17T14:16:44;6.15;;;3.60;;
54683;SDS011;40582;53.100;6.686;2022-10-17T14:24:41;7.57;;;3.90;;
54683;SDS011;40582;53.100;6.686;2022-10-17T14:32:54;10.80;;;3.67;;
54683;SDS011;40582;53.100;6.686;2022-10-17T14:35:22;9.75;;;4.07;;
54683;SDS011;40582;53.100;6.686;2022-10-17T14:37:50;7.30;;;3.50;;
54683;SDS011;40582;53.100;6.686;2022-10-17T14:40:19;10.07;;;3.45;;
54683;SDS011;40582;53.100;6.686;2022-10-17T14:42:47;8.40;;;3.28;;
54683;SDS011;40582;53.100;6.686;2022-10-17T14:45:37;8.60;;;3.80;;
54683;SDS011;40582;53.100;6.686;2022-10-17T14:48:05;6.90;;;4.07;;
54683;SDS011;40582;53.100;6.686;2022-10-17T14:50:31;6.32;;;3.70;;
54683;SDS011;40582;53.100;6.686;2022-10-17T14:53:19;5.93;;;3.92;;
54683;SDS011;40582;53.100;6.686;2022-10-17T14:55:55;5.32;;;3.63;;
54683;SDS011;40582;53.100;6.686;2022-10-17T14:58:24;7.13;;;3.10;;
54683;SDS011;40582;53.100;6.686;2022-10-17T15:00:55;13.95;;;5.05;;
54683;SDS011;40582;53.100;6.686;2022-10-17T15:03:21;14.40;;;4.10;;
54683;SDS011;40582;53.100;6.686;2022-10-17T15:05:51;16.27;;;11.32;;
54683;SDS011;40582;53.100;6.686;2022-10-17T15:08:18;15.32;;;10.25;;
54683;SDS011;40582;53.100;6.686;2022-10-17T15:10:46;11.65;;;5.40;;
54683;SDS011;40582;53.100;6.686;2022-10-17T15:13:12;12.77;;;6.65;;
54683;SDS011;40582;53.100;6.686;2022-10-17T15:15:39;10.00;;;6.40;;
54683;SDS011;40582;53.100;6.686;2022-10-17T15:18:06;9.88;;;4.85;;
54683;SDS011;40582;53.100;6.686;2022-10-17T15:20:34;11.50;;;5.90;;
54683;SDS011;40582;53.100;6.686;2022-10-17T15:23:00;17.50;;;4.28;;
54683;SDS011;40582;53.100;6.686;2022-10-17T15:25:27;7.28;;;3.75;;
54683;SDS011;40582;53.100;6.686;2022-10-17T15:27:54;8.77;;;4.38;;
54683;SDS011;40582;53.100;6.686;2022-10-17T15:30:25;13.10;;;4.43;;
54683;SDS011;40582;53.100;6.686;2022-10-17T15:32:56;7.65;;;3.20;;
54683;SDS011;40582;53.100;6.686;2022-10-17T15:35:22;13.35;;;7.78;;
54683;SDS011;40582;53.100;6.686;2022-10-17T15:37:48;10.45;;;7.57;;
54683;SDS011;40582;53.100;6.686;2022-10-17T15:40:19;10.95;;;6.15;;
54683;SDS011;40582;53.100;6.686;2022-10-17T15:42:49;7.10;;;4.03;;
54683;SDS011;40582;53.100;6.686;2022-10-17T15:45:17;9.65;;;4.70;;
54683;SDS011;40582;53.100;6.686;2022-10-17T15:47:49;11.80;;;5.97;;
54683;SDS011;40582;53.100;6.686;2022-10-17T15:50:17;5.07;;;3.15;;
54683;SDS011;40582;53.100;6.686;2022-10-17T15:52:43;7.00;;;3.60;;
54683;SDS011;40582;53.100;6.686;2022-10-17T15:55:11;8.13;;;3.65;;
54683;SDS011;40582;53.100;6.686;2022-10-17T15:57:37;11.98;;;3.47;;
54683;SDS011;40582;53.100;6.686;2022-10-17T16:00:13;7.80;;;3.40;;
54683;SDS011;40582;53.100;6.686;2022-10-17T16:02:44;8.63;;;3.30;;
54683;SDS011;40582;53.100;6.686;2022-10-17T16:05:15;6.80;;;3.10;;
54683;SDS011;40582;53.100;6.686;2022-10-17T16:07:43;6.22;;;3.22;;
54683;SDS011;40582;53.100;6.686;2022-10-17T16:10:11;6.82;;;3.53;;
54683;SDS011;40582;53.100;6.686;2022-10-17T16:12:38;7.40;;;3.08;;
54683;SDS011;40582;53.100;6.686;2022-10-17T16:15:11;6.57;;;2.75;;
54683;SDS011;40582;53.100;6.686;2022-10-17T16:17:39;8.05;;;3.55;;
54683;SDS011;40582;53.100;6.686;2022-10-17T16:20:05;5.25;;;3.03;;
54683;SDS011;40582;53.100;6.686;2022-10-17T16:22:32;10.43;;;3.55;;
54683;SDS011;40582;53.100;6.686;2022-10-17T16:25:05;19.17;;;3.75;;
54683;SDS011;40582;53.100;6.686;2022-10-17T16:27:44;11.90;;;3.92;;
54683;SDS011;40582;53.100;6.686;2022-10-17T16:30:10;9.48;;;4.15;;
54683;SDS011;40582;53.100;6.686;2022-10-17T16:32:36;7.80;;;4.82;;
54683;SDS011;40582;53.100;6.686;2022-10-17T16:35:03;7.68;;;4.47;;
54683;SDS011;40582;53.100;6.686;2022-10-17T16:37:29;9.85;;;4.38;;